sensor_id;sensor_type;location;lat;lon;timestamp;temperature;humidity
13616;DHT22;6879;51.368;6.782;2022-11-18T00:00:20;9.30;99.90
13616;DHT22;6879;51.368;6.782;2022-11-18T00:02:50;9.40;99.90
13616;DHT22;6879;51.368;6.782;2022-11-18T00:05:19;9.40;99.90
13616;DHT22;6879;51.368;6.782;2022-11-18T00:07:47;9.40;99.90
13616;DHT22;6879;51.368;6.782;2022-11-18T00:10:16;9.40;99.90
13616;DHT22;6879;51.368;6.782;2022-11-18T00:12:45;9.50;99.90
13616;DHT22;6879;51.368;6.782;2022-11-18T00:15:31;9.50;99.90
13616;DHT22;6879;51.368;6.782;2022-11-18T00:18:01;9.60;99.90
13616;DHT22;6879;51.368;6.782;2022-11-18T00:20:31;9.60;99.90
13616;DHT22;6879;51.368;6.782;2022-11-18T00:23:00;9.60;99.90
13616;DHT22;6879;51.368;6.782;2022-11-18T00:25:29;9.60;99.90
13616;DHT22;6879;51.368;6.782;2022-11-18T00:27:57;9.70;99.90
13616;DHT22;6879;51.368;6.782;2022-11-18T00:30:26;9.70;99.90
13616;DHT22;6879;51.368;6.782;2022-11-18T00:32:55;9.70;99.90
13616;DHT22;6879;51.368;6.782;2022-11-18T00:35:25;9.50;99.90
13616;DHT22;6879;51.368;6.782;2022-11-18T00:37:54;9.40;99.90
13616;DHT22;6879;51.368;6.782;2022-11-18T00:40:23;9.30;99.90
13616;DHT22;6879;51.368;6.782;2022-11-18T00:42:51;9.20;99.90
13616;DHT22;6879;51.368;6.782;2022-11-18T00:45:20;9.00;99.90
13616;DHT22;6879;51.368;6.782;2022-11-18T00:47:49;9.00;99.90
13616;DHT22;6879;51.368;6.782;2022-11-18T00:50:18;8.90;99.90
13616;DHT22;6879;51.368;6.782;2022-11-18T00:52:48;8.90;99.90
13616;DHT22;6879;51.368;6.782;2022-11-18T00:55:16;8.80;99.90
13616;DHT22;6879;51.368;6.782;2022-11-18T00:57:45;8.60;99.90
13616;DHT22;6879;51.368;6.782;2022-11-18T01:00:14;8.60;99.90
13616;DHT22;6879;51.368;6.782;2022-11-18T01:02:43;8.60;99.90
13616;DHT22;6879;51.368;6.782;2022-11-18T01:05:11;8.60;99.90
13616;DHT22;6879;51.368;6.782;2022-11-18T01:07:40;8.60;99.90
13616;DHT22;6879;51.368;6.782;2022-11-18T01:10:13;8.60;99.90
13616;DHT22;6879;51.368;6.782;2022-11-18T01:12:42;8.80;99.90
13616;DHT22;6879;51.368;6.782;2022-11-18T01:15:28;8.70;99.90
13616;DHT22;6879;51.368;6.782;2022-11-18T01:17:56;8.70;99.90
13616;DHT22;6879;51.368;6.782;2022-11-18T01:20:25;8.70;99.90
13616;DHT22;6879;51.368;6.782;2022-11-18T01:22:54;8.70;99.90
13616;DHT22;6879;51.368;6.782;2022-11-18T01:25:24;8.80;99.90
13616;DHT22;6879;51.368;6.782;2022-11-18T01:27:53;8.90;99.90
13616;DHT22;6879;51.368;6.782;2022-11-18T01:30:22;8.90;99.90
13616;DHT22;6879;51.368;6.782;2022-11-18T01:32:51;8.80;99.90
13616;DHT22;6879;51.368;6.782;2022-11-18T01:35:19;8.90;99.90
13616;DHT22;6879;51.368;6.782;2022-11-18T01:37:48;8.80;99.90
13616;DHT22;6879;51.368;6.782;2022-11-18T01:40:17;8.80;99.90
13616;DHT22;6879;51.368;6.782;2022-11-18T01:42:47;8.90;99.90
13616;DHT22;6879;51.368;6.782;2022-11-18T01:45:34;8.90;99.90
13616;DHT22;6879;51.368;6.782;2022-11-18T01:48:08;9.10;99.90
13616;DHT22;6879;51.368;6.782;2022-11-18T01:50:40;9.10;99.90
13616;DHT22;6879;51.368;6.782;2022-11-18T01:53:14;9.00;99.90
13616;DHT22;6879;51.368;6.782;2022-11-18T01:55:45;8.90;99.90
13616;DHT22;6879;51.368;6.782;2022-11-18T01:58:21;9.00;99.90
13616;DHT22;6879;51.368;6.782;2022-11-18T02:00:50;9.10;99.90
13616;DHT22;6879;51.368;6.782;2022-11-18T02:03:20;9.10;99.90
13616;DHT22;6879;51.368;6.782;2022-11-18T02:05:49;9.00;99.90
13616;DHT22;6879;51.368;6.782;2022-11-18T02:08:20;8.90;99.90
13616;DHT22;6879;51.368;6.782;2022-11-18T02:10:49;8.90;99.90
13616;DHT22;6879;51.368;6.782;2022-11-18T02:13:20;9.00;99.90
13616;DHT22;6879;51.368;6.782;2022-11-18T02:15:52;9.00;99.90
13616;DHT22;6879;51.368;6.782;2022-11-18T02:18:30;9.00;99.90
13616;DHT22;6879;51.368;6.782;2022-11-18T02:21:11;9.10;99.90
13616;DHT22;6879;51.368;6.782;2022-11-18T02:27:25;9.10;99.90
13616;DHT22;6879;51.368;6.782;2022-11-18T02:30:02;9.10;99.90
13616;DHT22;6879;51.368;6.782;2022-11-18T02:32:37;9.10;99.90
13616;DHT22;6879;51.368;6.782;2022-11-18T02:35:14;9.00;99.90
13616;DHT22;6879;51.368;6.782;2022-11-18T02:37:47;9.20;99.90
13616;DHT22;6879;51.368;6.782;2022-11-18T02:40:21;9.10;99.90
13616;DHT22;6879;51.368;6.782;2022-11-18T02:42:55;9.10;99.90
13616;DHT22;6879;51.368;6.782;2022-11-18T02:45:27;9.00;99.90
13616;DHT22;6879;51.368;6.782;2022-11-18T02:48:00;8.90;99.90
13616;DHT22;6879;51.368;6.782;2022-11-18T02:50:32;8.90;99.90
13616;DHT22;6879;51.368;6.782;2022-11-18T02:53:04;9.00;99.90
13616;DHT22;6879;51.368;6.782;2022-11-18T02:55:37;8.90;99.90
13616;DHT22;6879;51.368;6.782;2022-11-18T02:58:06;8.90;99.90
13616;DHT22;6879;51.368;6.782;2022-11-18T03:00:37;8.80;99.90
13616;DHT22;6879;51.368;6.782;2022-11-18T03:03:24;8.80;99.90
13616;DHT22;6879;51.368;6.782;2022-11-18T03:06:01;8.80;99.90
13616;DHT22;6879;51.368;6.782;2022-11-18T03:08:36;8.70;99.90
13616;DHT22;6879;51.368;6.782;2022-11-18T03:11:11;8.70;99.90
13616;DHT22;6879;51.368;6.782;2022-11-18T03:13:51;8.70;99.90
13616;DHT22;6879;51.368;6.782;2022-11-18T03:16:30;8.70;99.90
13616;DHT22;6879;51.368;6.782;2022-11-18T03:19:06;8.70;99.90
13616;DHT22;6879;51.368;6.782;2022-11-18T03:21:38;8.70;99.90
13616;DHT22;6879;51.368;6.782;2022-11-18T03:24:12;8.70;99.90
13616;DHT22;6879;51.368;6.782;2022-11-18T03:26:45;8.80;99.90
13616;DHT22;6879;51.368;6.782;2022-11-18T03:29:19;8.90;99.90
13616;DHT22;6879;51.368;6.782;2022-11-18T03:31:51;9.00;99.90
13616;DHT22;6879;51.368;6.782;2022-11-18T03:34:25;9.10;99.90
13616;DHT22;6879;51.368;6.782;2022-11-18T03:36:57;9.20;99.90
13616;DHT22;6879;51.368;6.782;2022-11-18T03:39:34;9.20;99.90
13616;DHT22;6879;51.368;6.782;2022-11-18T03:42:07;9.20;99.90
13616;DHT22;6879;51.368;6.782;2022-11-18T03:44:40;9.30;99.90
13616;DHT22;6879;51.368;6.782;2022-11-18T03:47:23;9.40;99.90
13616;DHT22;6879;51.368;6.782;2022-11-18T03:49:57;9.40;99.90
13616;DHT22;6879;51.368;6.782;2022-11-18T03:52:29;9.40;99.90
13616;DHT22;6879;51.368;6.782;2022-11-18T03:55:03;9.40;99.90
13616;DHT22;6879;51.368;6.782;2022-11-18T03:57:40;9.50;99.90
13616;DHT22;6879;51.368;6.782;2022-11-18T04:00:12;9.50;99.90
13616;DHT22;6879;51.368;6.782;2022-11-18T04:02:43;9.40;99.90
13616;DHT22;6879;51.368;6.782;2022-11-18T04:05:16;9.30;99.90
13616;DHT22;6879;51.368;6.782;2022-11-18T04:07:52;9.20;99.90
13616;DHT22;6879;51.368;6.782;2022-11-18T04:10:23;9.20;99.90
13616;DHT22;6879;51.368;6.782;2022-11-18T04:12:58;9.20;99.90
13616;DHT22;6879;51.368;6.782;2022-11-18T04:15:35;9.30;99.90
13616;DHT22;6879;51.368;6.782;2022-11-18T04:18:05;9.40;99.90
13616;DHT22;6879;51.368;6.782;2022-11-18T04:20:34;9.40;99.90
13616;DHT22;6879;51.368;6.782;2022-11-18T04:23:03;9.40;99.90
13616;DHT22;6879;51.368;6.782;2022-11-18T04:25:32;9.30;99.90
13616;DHT22;6879;51.368;6.782;2022-11-18T04:28:05;9.30;99.90
13616;DHT22;6879;51.368;6.782;2022-11-18T04:30:33;9.30;99.90
13616;DHT22;6879;51.368;6.782;2022-11-18T04:33:02;9.40;99.90
13616;DHT22;6879;51.368;6.782;2022-11-18T04:35:32;9.40;99.90
13616;DHT22;6879;51.368;6.782;2022-11-18T04:38:01;9.50;99.90
13616;DHT22;6879;51.368;6.782;2022-11-18T04:40:31;9.40;99.90
13616;DHT22;6879;51.368;6.782;2022-11-18T04:42:59;9.40;99.90
13616;DHT22;6879;51.368;6.782;2022-11-18T04:45:28;9.40;99.90
13616;DHT22;6879;51.368;6.782;2022-11-18T04:47:56;9.40;99.90
13616;DHT22;6879;51.368;6.782;2022-11-18T04:50:29;9.50;99.90
13616;DHT22;6879;51.368;6.782;2022-11-18T04:52:59;9.50;99.90
13616;DHT22;6879;51.368;6.782;2022-11-18T04:55:28;9.60;99.90
13616;DHT22;6879;51.368;6.782;2022-11-18T04:57:56;9.60;99.90
13616;DHT22;6879;51.368;6.782;2022-11-18T05:00:25;9.60;99.90
13616;DHT22;6879;51.368;6.782;2022-11-18T05:02:53;9.60;99.90
13616;DHT22;6879;51.368;6.782;2022-11-18T05:05:22;9.60;99.90
13616;DHT22;6879;51.368;6.782;2022-11-18T05:07:50;9.50;99.90
13616;DHT22;6879;51.368;6.782;2022-11-18T05:10:21;9.60;99.90
13616;DHT22;6879;51.368;6.782;2022-11-18T05:12:49;9.60;99.90
13616;DHT22;6879;51.368;6.782;2022-11-18T05:15:19;9.60;99.90
13616;DHT22;6879;51.368;6.782;2022-11-18T05:17:49;9.60;99.90
13616;DHT22;6879;51.368;6.782;2022-11-18T05:20:18;9.70;99.90
13616;DHT22;6879;51.368;6.782;2022-11-18T05:22:47;9.70;99.90
13616;DHT22;6879;51.368;6.782;2022-11-18T05:25:19;9.60;99.90
13616;DHT22;6879;51.368;6.782;2022-11-18T05:27:48;9.70;99.90
13616;DHT22;6879;51.368;6.782;2022-11-18T05:30:17;9.60;99.90
13616;DHT22;6879;51.368;6.782;2022-11-18T05:32:46;9.60;99.90
13616;DHT22;6879;51.368;6.782;2022-11-18T05:35:14;9.60;99.90
13616;DHT22;6879;51.368;6.782;2022-11-18T05:37:43;9.40;99.90
13616;DHT22;6879;51.368;6.782;2022-11-18T05:40:11;9.30;99.90
13616;DHT22;6879;51.368;6.782;2022-11-18T05:42:41;9.20;99.90
13616;DHT22;6879;51.368;6.782;2022-11-18T05:45:27;9.20;99.90
13616;DHT22;6879;51.368;6.782;2022-11-18T05:47:56;9.10;99.90
13616;DHT22;6879;51.368;6.782;2022-11-18T05:50:28;8.90;99.90
13616;DHT22;6879;51.368;6.782;2022-11-18T05:52:57;8.80;99.90
13616;DHT22;6879;51.368;6.782;2022-11-18T05:55:28;8.90;99.90
13616;DHT22;6879;51.368;6.782;2022-11-18T05:58:00;8.70;99.90
13616;DHT22;6879;51.368;6.782;2022-11-18T06:00:30;8.60;99.90
13616;DHT22;6879;51.368;6.782;2022-11-18T06:02:59;8.60;99.90
13616;DHT22;6879;51.368;6.782;2022-11-18T06:05:29;8.60;99.90
13616;DHT22;6879;51.368;6.782;2022-11-18T06:07:57;8.60;99.90
13616;DHT22;6879;51.368;6.782;2022-11-18T06:10:31;8.60;99.90
13616;DHT22;6879;51.368;6.782;2022-11-18T06:13:07;8.70;99.90
13616;DHT22;6879;51.368;6.782;2022-11-18T06:15:41;8.80;99.90
13616;DHT22;6879;51.368;6.782;2022-11-18T06:18:17;8.90;99.90
13616;DHT22;6879;51.368;6.782;2022-11-18T06:20:46;8.90;99.90
13616;DHT22;6879;51.368;6.782;2022-11-18T06:23:15;9.00;99.90
13616;DHT22;6879;51.368;6.782;2022-11-18T06:25:44;8.90;99.90
13616;DHT22;6879;51.368;6.782;2022-11-18T06:28:16;9.00;99.90
13616;DHT22;6879;51.368;6.782;2022-11-18T06:30:45;9.00;99.90
13616;DHT22;6879;51.368;6.782;2022-11-18T06:33:14;9.00;99.90
13616;DHT22;6879;51.368;6.782;2022-11-18T06:35:43;9.00;99.90
13616;DHT22;6879;51.368;6.782;2022-11-18T06:38:11;8.90;99.90
13616;DHT22;6879;51.368;6.782;2022-11-18T06:40:40;8.90;99.90
13616;DHT22;6879;51.368;6.782;2022-11-18T06:43:11;8.90;99.90
13616;DHT22;6879;51.368;6.782;2022-11-18T06:45:59;8.90;99.90
13616;DHT22;6879;51.368;6.782;2022-11-18T06:48:45;9.00;99.90
13616;DHT22;6879;51.368;6.782;2022-11-18T06:51:14;9.00;99.90
13616;DHT22;6879;51.368;6.782;2022-11-18T06:53:43;9.00;99.90
13616;DHT22;6879;51.368;6.782;2022-11-18T06:56:13;9.00;99.90
13616;DHT22;6879;51.368;6.782;2022-11-18T07:07:35;9.30;99.90
13616;DHT22;6879;51.368;6.782;2022-11-18T07:30:20;9.40;99.90
13616;DHT22;6879;51.368;6.782;2022-11-18T07:33:38;9.30;99.90
13616;DHT22;6879;51.368;6.782;2022-11-18T07:37:37;9.30;99.90
13616;DHT22;6879;51.368;6.782;2022-11-18T07:47:45;9.20;99.90
13616;DHT22;6879;51.368;6.782;2022-11-18T07:50:15;9.20;99.90
13616;DHT22;6879;51.368;6.782;2022-11-18T07:52:45;9.20;99.90
13616;DHT22;6879;51.368;6.782;2022-11-18T07:55:14;9.30;99.90
13616;DHT22;6879;51.368;6.782;2022-11-18T07:57:44;9.40;99.90
13616;DHT22;6879;51.368;6.782;2022-11-18T08:00:14;9.40;99.90
13616;DHT22;6879;51.368;6.782;2022-11-18T08:02:48;9.40;99.90
13616;DHT22;6879;51.368;6.782;2022-11-18T08:05:18;9.50;99.90
13616;DHT22;6879;51.368;6.782;2022-11-18T08:07:48;9.60;99.90
13616;DHT22;6879;51.368;6.782;2022-11-18T08:10:18;9.70;99.90
13616;DHT22;6879;51.368;6.782;2022-11-18T08:12:47;9.70;99.90
13616;DHT22;6879;51.368;6.782;2022-11-18T08:15:16;9.80;99.90
13616;DHT22;6879;51.368;6.782;2022-11-18T08:17:51;9.90;99.90
13616;DHT22;6879;51.368;6.782;2022-11-18T08:20:20;9.90;99.90
13616;DHT22;6879;51.368;6.782;2022-11-18T08:22:53;9.90;99.90
13616;DHT22;6879;51.368;6.782;2022-11-18T08:25:23;9.90;99.90
13616;DHT22;6879;51.368;6.782;2022-11-18T08:27:52;9.90;99.90
13616;DHT22;6879;51.368;6.782;2022-11-18T08:30:22;9.90;99.90
13616;DHT22;6879;51.368;6.782;2022-11-18T08:32:53;9.80;99.90
13616;DHT22;6879;51.368;6.782;2022-11-18T08:35:25;9.80;99.90
13616;DHT22;6879;51.368;6.782;2022-11-18T08:37:54;9.80;99.90
13616;DHT22;6879;51.368;6.782;2022-11-18T08:40:25;9.80;99.90
13616;DHT22;6879;51.368;6.782;2022-11-18T08:42:55;9.70;99.90
13616;DHT22;6879;51.368;6.782;2022-11-18T08:45:26;9.70;99.90
13616;DHT22;6879;51.368;6.782;2022-11-18T08:47:56;9.70;99.90
13616;DHT22;6879;51.368;6.782;2022-11-18T08:50:25;9.60;99.90
13616;DHT22;6879;51.368;6.782;2022-11-18T08:52:54;9.70;99.90
13616;DHT22;6879;51.368;6.782;2022-11-18T08:55:22;9.70;99.90
13616;DHT22;6879;51.368;6.782;2022-11-18T08:57:51;9.90;99.90
13616;DHT22;6879;51.368;6.782;2022-11-18T09:00:19;9.80;99.90
13616;DHT22;6879;51.368;6.782;2022-11-18T09:02:48;9.80;99.90
13616;DHT22;6879;51.368;6.782;2022-11-18T09:05:18;9.80;99.90
13616;DHT22;6879;51.368;6.782;2022-11-18T09:07:47;9.80;99.90
13616;DHT22;6879;51.368;6.782;2022-11-18T09:10:16;9.80;99.90
13616;DHT22;6879;51.368;6.782;2022-11-18T09:12:48;9.80;99.90
13616;DHT22;6879;51.368;6.782;2022-11-18T09:15:19;9.80;99.90
13616;DHT22;6879;51.368;6.782;2022-11-18T09:17:50;9.90;99.90
13616;DHT22;6879;51.368;6.782;2022-11-18T09:20:21;9.90;99.90
13616;DHT22;6879;51.368;6.782;2022-11-18T09:22:51;10.00;99.90
13616;DHT22;6879;51.368;6.782;2022-11-18T09:25:21;10.10;99.90
13616;DHT22;6879;51.368;6.782;2022-11-18T09:27:51;10.10;99.90
13616;DHT22;6879;51.368;6.782;2022-11-18T09:30:21;10.10;99.90
13616;DHT22;6879;51.368;6.782;2022-11-18T09:32:51;10.20;99.90
13616;DHT22;6879;51.368;6.782;2022-11-18T09:35:21;10.30;99.90
13616;DHT22;6879;51.368;6.782;2022-11-18T09:37:50;10.30;99.90
13616;DHT22;6879;51.368;6.782;2022-11-18T09:40:19;10.40;99.90
13616;DHT22;6879;51.368;6.782;2022-11-18T09:42:55;10.50;99.90
13616;DHT22;6879;51.368;6.782;2022-11-18T09:45:27;10.60;99.90
13616;DHT22;6879;51.368;6.782;2022-11-18T09:47:58;10.60;99.90
13616;DHT22;6879;51.368;6.782;2022-11-18T09:50:31;10.60;99.90
13616;DHT22;6879;51.368;6.782;2022-11-18T09:53:19;10.60;99.90
13616;DHT22;6879;51.368;6.782;2022-11-18T09:55:49;10.70;99.90
13616;DHT22;6879;51.368;6.782;2022-11-18T09:58:24;10.70;99.90
13616;DHT22;6879;51.368;6.782;2022-11-18T10:00:57;10.70;99.90
13616;DHT22;6879;51.368;6.782;2022-11-18T10:03:28;10.80;99.90
13616;DHT22;6879;51.368;6.782;2022-11-18T10:06:04;10.90;99.90
13616;DHT22;6879;51.368;6.782;2022-11-18T10:08:55;10.90;99.90
13616;DHT22;6879;51.368;6.782;2022-11-18T10:11:27;10.90;99.90
13616;DHT22;6879;51.368;6.782;2022-11-18T10:14:17;10.90;99.90
13616;DHT22;6879;51.368;6.782;2022-11-18T10:16:59;10.90;99.90
13616;DHT22;6879;51.368;6.782;2022-11-18T10:19:37;11.00;99.90
13616;DHT22;6879;51.368;6.782;2022-11-18T10:22:18;11.10;99.90
13616;DHT22;6879;51.368;6.782;2022-11-18T10:24:52;11.10;99.90
13616;DHT22;6879;51.368;6.782;2022-11-18T10:27:35;11.30;99.90
13616;DHT22;6879;51.368;6.782;2022-11-18T10:30:10;11.40;99.90
13616;DHT22;6879;51.368;6.782;2022-11-18T10:32:56;11.40;99.90
13616;DHT22;6879;51.368;6.782;2022-11-18T10:35:29;11.60;99.90
13616;DHT22;6879;51.368;6.782;2022-11-18T10:38:04;12.10;99.90
13616;DHT22;6879;51.368;6.782;2022-11-18T10:40:36;12.20;99.90
13616;DHT22;6879;51.368;6.782;2022-11-18T10:43:09;12.20;99.90
13616;DHT22;6879;51.368;6.782;2022-11-18T10:45:39;12.20;99.90
13616;DHT22;6879;51.368;6.782;2022-11-18T10:48:16;12.20;99.90
13616;DHT22;6879;51.368;6.782;2022-11-18T10:50:48;12.40;99.90
13616;DHT22;6879;51.368;6.782;2022-11-18T10:53:30;12.60;99.90
13616;DHT22;6879;51.368;6.782;2022-11-18T10:56:02;12.60;99.90
13616;DHT22;6879;51.368;6.782;2022-11-18T10:58:34;12.50;99.90
13616;DHT22;6879;51.368;6.782;2022-11-18T11:01:09;12.60;99.90
13616;DHT22;6879;51.368;6.782;2022-11-18T11:03:53;12.70;99.90
13616;DHT22;6879;51.368;6.782;2022-11-18T11:06:31;13.00;99.90
13616;DHT22;6879;51.368;6.782;2022-11-18T11:09:06;13.60;98.70
13616;DHT22;6879;51.368;6.782;2022-11-18T11:11:37;14.10;96.90
13616;DHT22;6879;51.368;6.782;2022-11-18T11:14:18;14.30;96.30
13616;DHT22;6879;51.368;6.782;2022-11-18T11:17:08;13.70;96.50
13616;DHT22;6879;51.368;6.782;2022-11-18T11:19:49;13.40;98.30
13616;DHT22;6879;51.368;6.782;2022-11-18T11:22:19;13.80;97.90
13616;DHT22;6879;51.368;6.782;2022-11-18T11:24:50;13.80;96.60
13616;DHT22;6879;51.368;6.782;2022-11-18T11:27:36;13.40;97.90
13616;DHT22;6879;51.368;6.782;2022-11-18T11:30:28;13.30;98.20
13616;DHT22;6879;51.368;6.782;2022-11-18T11:33:17;13.10;98.80
13616;DHT22;6879;51.368;6.782;2022-11-18T11:36:02;13.50;97.90
13616;DHT22;6879;51.368;6.782;2022-11-18T11:38:53;13.40;98.10
13616;DHT22;6879;51.368;6.782;2022-11-18T11:41:40;13.00;99.10
13616;DHT22;6879;51.368;6.782;2022-11-18T11:44:24;12.80;99.90
13616;DHT22;6879;51.368;6.782;2022-11-18T11:47:09;12.70;99.90
13616;DHT22;6879;51.368;6.782;2022-11-18T11:50:00;12.70;99.90
13616;DHT22;6879;51.368;6.782;2022-11-18T11:52:37;13.00;99.90
13616;DHT22;6879;51.368;6.782;2022-11-18T11:55:17;13.40;99.60
13616;DHT22;6879;51.368;6.782;2022-11-18T11:58:10;13.80;98.60
13616;DHT22;6879;51.368;6.782;2022-11-18T12:00:48;14.10;97.30
13616;DHT22;6879;51.368;6.782;2022-11-18T12:03:43;14.30;96.10
13616;DHT22;6879;51.368;6.782;2022-11-18T12:06:18;14.40;95.50
13616;DHT22;6879;51.368;6.782;2022-11-18T12:08:55;14.90;94.40
13616;DHT22;6879;51.368;6.782;2022-11-18T12:11:30;15.50;93.10
13616;DHT22;6879;51.368;6.782;2022-11-18T12:14:06;15.30;92.90
13616;DHT22;6879;51.368;6.782;2022-11-18T12:16:43;14.90;93.40
13616;DHT22;6879;51.368;6.782;2022-11-18T12:19:14;14.80;94.20
13616;DHT22;6879;51.368;6.782;2022-11-18T12:22:00;15.10;93.70
13616;DHT22;6879;51.368;6.782;2022-11-18T12:24:35;15.70;92.90
13616;DHT22;6879;51.368;6.782;2022-11-18T12:27:09;16.20;90.80
13616;DHT22;6879;51.368;6.782;2022-11-18T12:29:51;16.90;88.80
13616;DHT22;6879;51.368;6.782;2022-11-18T12:32:39;17.40;88.00
13616;DHT22;6879;51.368;6.782;2022-11-18T12:35:24;18.40;85.70
13616;DHT22;6879;51.368;6.782;2022-11-18T12:37:59;19.50;82.90
13616;DHT22;6879;51.368;6.782;2022-11-18T12:40:41;19.00;82.60
13616;DHT22;6879;51.368;6.782;2022-11-18T12:46:50;19.40;82.30
13616;DHT22;6879;51.368;6.782;2022-11-18T12:52:50;20.10;80.30
13616;DHT22;6879;51.368;6.782;2022-11-18T12:55:30;19.90;80.10
13616;DHT22;6879;51.368;6.782;2022-11-18T12:58:00;19.40;81.10
13616;DHT22;6879;51.368;6.782;2022-11-18T13:00:33;18.90;81.00
13616;DHT22;6879;51.368;6.782;2022-11-18T13:03:31;17.80;83.70
13616;DHT22;6879;51.368;6.782;2022-11-18T13:06:05;17.10;86.40
13616;DHT22;6879;51.368;6.782;2022-11-18T13:08:34;17.30;87.40
13616;DHT22;6879;51.368;6.782;2022-11-18T13:11:09;17.90;85.00
13616;DHT22;6879;51.368;6.782;2022-11-18T13:14:00;17.50;84.60
13616;DHT22;6879;51.368;6.782;2022-11-18T13:16:47;17.00;85.90
13616;DHT22;6879;51.368;6.782;2022-11-18T13:19:34;17.80;85.10
13616;DHT22;6879;51.368;6.782;2022-11-18T13:22:04;18.20;83.90
13616;DHT22;6879;51.368;6.782;2022-11-18T13:25:00;18.00;83.90
13616;DHT22;6879;51.368;6.782;2022-11-18T13:27:38;16.60;86.70
13616;DHT22;6879;51.368;6.782;2022-11-18T13:30:12;16.00;88.70
13616;DHT22;6879;51.368;6.782;2022-11-18T13:32:42;15.80;88.90
13616;DHT22;6879;51.368;6.782;2022-11-18T13:35:14;16.60;88.60
13616;DHT22;6879;51.368;6.782;2022-11-18T13:37:51;17.20;87.00
13616;DHT22;6879;51.368;6.782;2022-11-18T13:40:23;17.40;86.10
13616;DHT22;6879;51.368;6.782;2022-11-18T13:42:52;17.50;86.10
13616;DHT22;6879;51.368;6.782;2022-11-18T13:45:24;17.70;85.50
13616;DHT22;6879;51.368;6.782;2022-11-18T13:47:56;17.90;84.20
13616;DHT22;6879;51.368;6.782;2022-11-18T13:50:32;17.40;85.30
13616;DHT22;6879;51.368;6.782;2022-11-18T13:53:16;17.10;85.90
13616;DHT22;6879;51.368;6.782;2022-11-18T13:55:54;16.70;87.00
13616;DHT22;6879;51.368;6.782;2022-11-18T13:58:38;15.80;88.40
13616;DHT22;6879;51.368;6.782;2022-11-18T14:01:28;14.80;91.10
13616;DHT22;6879;51.368;6.782;2022-11-18T14:03:59;14.00;92.90
13616;DHT22;6879;51.368;6.782;2022-11-18T14:06:32;13.60;94.50
13616;DHT22;6879;51.368;6.782;2022-11-18T14:09:06;13.40;95.50
13616;DHT22;6879;51.368;6.782;2022-11-18T14:11:44;13.20;95.80
13616;DHT22;6879;51.368;6.782;2022-11-18T14:14:27;13.10;96.40
13616;DHT22;6879;51.368;6.782;2022-11-18T14:17:04;13.40;96.50
13616;DHT22;6879;51.368;6.782;2022-11-18T14:19:33;14.10;95.10
13616;DHT22;6879;51.368;6.782;2022-11-18T14:22:05;14.30;93.70
13616;DHT22;6879;51.368;6.782;2022-11-18T14:24:39;14.20;93.80
13616;DHT22;6879;51.368;6.782;2022-11-18T14:30:34;13.80;94.50
13616;DHT22;6879;51.368;6.782;2022-11-18T14:33:11;13.90;95.20
13616;DHT22;6879;51.368;6.782;2022-11-18T14:35:41;14.00;94.60
13616;DHT22;6879;51.368;6.782;2022-11-18T14:38:13;13.80;94.90
13616;DHT22;6879;51.368;6.782;2022-11-18T14:41:04;13.40;95.70
13616;DHT22;6879;51.368;6.782;2022-11-18T14:43:34;13.00;96.90
13616;DHT22;6879;51.368;6.782;2022-11-18T14:46:05;12.70;97.70
13616;DHT22;6879;51.368;6.782;2022-11-18T14:48:35;12.40;98.50
13616;DHT22;6879;51.368;6.782;2022-11-18T14:51:21;12.20;99.10
13616;DHT22;6879;51.368;6.782;2022-11-18T14:54:21;12.00;99.60
13616;DHT22;6879;51.368;6.782;2022-11-18T14:58:12;11.80;99.90
13616;DHT22;6879;51.368;6.782;2022-11-18T15:00:35;11.60;99.90
13616;DHT22;6879;51.368;6.782;2022-11-18T15:03:05;11.40;99.90
13616;DHT22;6879;51.368;6.782;2022-11-18T15:05:34;11.30;99.90
13616;DHT22;6879;51.368;6.782;2022-11-18T15:08:05;11.10;99.90
13616;DHT22;6879;51.368;6.782;2022-11-18T15:10:36;11.00;99.90
13616;DHT22;6879;51.368;6.782;2022-11-18T15:13:05;10.90;99.90
13616;DHT22;6879;51.368;6.782;2022-11-18T15:15:33;10.70;99.90
13616;DHT22;6879;51.368;6.782;2022-11-18T15:18:02;10.60;99.90
13616;DHT22;6879;51.368;6.782;2022-11-18T15:20:31;10.40;99.90
13616;DHT22;6879;51.368;6.782;2022-11-18T15:23:00;10.30;99.90
13616;DHT22;6879;51.368;6.782;2022-11-18T15:25:29;10.20;99.90
13616;DHT22;6879;51.368;6.782;2022-11-18T15:28:08;9.90;99.90
13616;DHT22;6879;51.368;6.782;2022-11-18T15:30:39;9.70;99.90
13616;DHT22;6879;51.368;6.782;2022-11-18T15:33:09;9.50;99.90
13616;DHT22;6879;51.368;6.782;2022-11-18T15:35:43;9.30;99.90
13616;DHT22;6879;51.368;6.782;2022-11-18T15:38:12;9.00;99.90
13616;DHT22;6879;51.368;6.782;2022-11-18T15:40:40;8.90;99.90
13616;DHT22;6879;51.368;6.782;2022-11-18T15:43:11;8.70;99.90
13616;DHT22;6879;51.368;6.782;2022-11-18T15:45:39;8.50;99.90
13616;DHT22;6879;51.368;6.782;2022-11-18T15:48:10;8.30;99.90
13616;DHT22;6879;51.368;6.782;2022-11-18T15:50:39;8.10;99.90
13616;DHT22;6879;51.368;6.782;2022-11-18T15:53:07;8.10;99.90
13616;DHT22;6879;51.368;6.782;2022-11-18T15:55:36;7.90;99.90
13616;DHT22;6879;51.368;6.782;2022-11-18T15:58:05;7.80;99.90
13616;DHT22;6879;51.368;6.782;2022-11-18T16:00:37;7.70;99.90
13616;DHT22;6879;51.368;6.782;2022-11-18T16:03:06;7.50;99.90
13616;DHT22;6879;51.368;6.782;2022-11-18T16:05:35;7.30;99.90
13616;DHT22;6879;51.368;6.782;2022-11-18T16:08:04;7.20;99.90
13616;DHT22;6879;51.368;6.782;2022-11-18T16:10:33;7.10;99.90
13616;DHT22;6879;51.368;6.782;2022-11-18T16:13:31;7.00;99.90
13616;DHT22;6879;51.368;6.782;2022-11-18T16:16:01;6.90;99.90
13616;DHT22;6879;51.368;6.782;2022-11-18T16:18:30;6.80;99.90
13616;DHT22;6879;51.368;6.782;2022-11-18T16:21:05;6.70;99.90
13616;DHT22;6879;51.368;6.782;2022-11-18T16:23:34;6.60;99.90
13616;DHT22;6879;51.368;6.782;2022-11-18T16:26:02;6.60;99.90
13616;DHT22;6879;51.368;6.782;2022-11-18T16:28:31;6.60;99.90
13616;DHT22;6879;51.368;6.782;2022-11-18T16:31:01;6.60;99.90
13616;DHT22;6879;51.368;6.782;2022-11-18T16:33:47;6.70;99.90
13616;DHT22;6879;51.368;6.782;2022-11-18T16:36:16;6.70;99.90
13616;DHT22;6879;51.368;6.782;2022-11-18T16:38:44;6.80;99.90
13616;DHT22;6879;51.368;6.782;2022-11-18T16:41:13;6.70;99.90
13616;DHT22;6879;51.368;6.782;2022-11-18T16:43:55;6.60;99.90
13616;DHT22;6879;51.368;6.782;2022-11-18T16:46:26;6.50;99.90
13616;DHT22;6879;51.368;6.782;2022-11-18T16:48:55;6.50;99.90
13616;DHT22;6879;51.368;6.782;2022-11-18T16:51:24;6.50;99.90
13616;DHT22;6879;51.368;6.782;2022-11-18T16:53:55;6.40;99.90
13616;DHT22;6879;51.368;6.782;2022-11-18T16:56:26;6.40;99.90
13616;DHT22;6879;51.368;6.782;2022-11-18T16:58:56;6.30;99.90
13616;DHT22;6879;51.368;6.782;2022-11-18T17:01:27;6.30;99.90
13616;DHT22;6879;51.368;6.782;2022-11-18T17:03:57;6.30;99.90
13616;DHT22;6879;51.368;6.782;2022-11-18T17:11:18;6.30;99.90
13616;DHT22;6879;51.368;6.782;2022-11-18T18:50:09;8.10;99.90
13616;DHT22;6879;51.368;6.782;2022-11-18T18:52:41;8.10;99.90
13616;DHT22;6879;51.368;6.782;2022-11-18T18:55:13;8.00;99.90
13616;DHT22;6879;51.368;6.782;2022-11-18T18:57:43;7.90;99.90
13616;DHT22;6879;51.368;6.782;2022-11-18T19:00:15;7.90;99.90
13616;DHT22;6879;51.368;6.782;2022-11-18T19:02:50;7.90;99.90
13616;DHT22;6879;51.368;6.782;2022-11-18T19:05:36;7.90;99.90
13616;DHT22;6879;51.368;6.782;2022-11-18T19:08:48;7.90;99.90
13616;DHT22;6879;51.368;6.782;2022-11-18T19:11:28;7.80;99.90